sensor_id;sensor_type;location;lat;lon;timestamp;P1;durP1;ratioP1;P2;durP2;ratioP2
1402;SDS011;696;48.546;9.896;2023-06-26T00:01:13;9.18;;;6.35;;
1402;SDS011;696;48.546;9.896;2023-06-26T00:03:39;13.15;;;6.15;;
1402;SDS011;696;48.546;9.896;2023-06-26T00:06:04;8.90;;;5.95;;
1402;SDS011;696;48.546;9.896;2023-06-26T00:08:29;9.98;;;5.70;;
1402;SDS011;696;48.546;9.896;2023-06-26T00:10:55;9.27;;;6.07;;
1402;SDS011;696;48.546;9.896;2023-06-26T00:13:20;8.30;;;5.88;;
1402;SDS011;696;48.546;9.896;2023-06-26T00:15:46;18.08;;;5.95;;
1402;SDS011;696;48.546;9.896;2023-06-26T00:18:11;10.50;;;5.72;;
1402;SDS011;696;48.546;9.896;2023-06-26T00:20:37;11.00;;;5.95;;
1402;SDS011;696;48.546;9.896;2023-06-26T00:23:02;8.40;;;5.72;;
1402;SDS011;696;48.546;9.896;2023-06-26T00:25:32;7.90;;;5.65;;
1402;SDS011;696;48.546;9.896;2023-06-26T00:27:58;14.65;;;6.03;;
1402;SDS011;696;48.546;9.896;2023-06-26T00:30:23;10.32;;;5.90;;
1402;SDS011;696;48.546;9.896;2023-06-26T00:32:48;8.20;;;6.18;;
1402;SDS011;696;48.546;9.896;2023-06-26T00:35:14;7.47;;;5.43;;
1402;SDS011;696;48.546;9.896;2023-06-26T00:37:39;9.20;;;5.55;;
1402;SDS011;696;48.546;9.896;2023-06-26T00:40:04;9.93;;;5.57;;
1402;SDS011;696;48.546;9.896;2023-06-26T00:42:30;10.68;;;5.95;;
1402;SDS011;696;48.546;9.896;2023-06-26T00:44:56;10.77;;;6.55;;
1402;SDS011;696;48.546;9.896;2023-06-26T00:47:21;12.20;;;6.28;;
1402;SDS011;696;48.546;9.896;2023-06-26T00:49:47;8.95;;;5.60;;
1402;SDS011;696;48.546;9.896;2023-06-26T00:52:13;8.75;;;5.53;;
1402;SDS011;696;48.546;9.896;2023-06-26T00:54:38;9.50;;;5.88;;
1402;SDS011;696;48.546;9.896;2023-06-26T00:57:04;8.77;;;5.97;;
1402;SDS011;696;48.546;9.896;2023-06-26T00:59:29;12.88;;;6.13;;
1402;SDS011;696;48.546;9.896;2023-06-26T01:01:54;7.95;;;5.32;;
1402;SDS011;696;48.546;9.896;2023-06-26T01:04:20;9.60;;;6.05;;
1402;SDS011;696;48.546;9.896;2023-06-26T01:06:46;10.55;;;6.53;;
1402;SDS011;696;48.546;9.896;2023-06-26T01:09:17;10.52;;;6.28;;
1402;SDS011;696;48.546;9.896;2023-06-26T01:11:43;10.85;;;6.03;;
1402;SDS011;696;48.546;9.896;2023-06-26T01:14:09;8.70;;;5.45;;
1402;SDS011;696;48.546;9.896;2023-06-26T01:16:34;10.27;;;5.85;;
1402;SDS011;696;48.546;9.896;2023-06-26T01:19:00;9.18;;;6.13;;
1402;SDS011;696;48.546;9.896;2023-06-26T01:21:25;7.32;;;5.53;;
1402;SDS011;696;48.546;9.896;2023-06-26T01:26:39;7.40;;;5.07;;
1402;SDS011;696;48.546;9.896;2023-06-26T01:29:06;12.65;;;6.20;;
1402;SDS011;696;48.546;9.896;2023-06-26T01:31:32;9.95;;;5.95;;
1402;SDS011;696;48.546;9.896;2023-06-26T01:33:59;7.78;;;5.93;;
1402;SDS011;696;48.546;9.896;2023-06-26T01:36:24;10.43;;;5.90;;
1402;SDS011;696;48.546;9.896;2023-06-26T01:38:50;10.65;;;5.70;;
1402;SDS011;696;48.546;9.896;2023-06-26T01:41:16;7.30;;;5.40;;
1402;SDS011;696;48.546;9.896;2023-06-26T01:46:18;10.07;;;6.25;;
1402;SDS011;696;48.546;9.896;2023-06-26T01:51:15;8.68;;;5.95;;
1402;SDS011;696;48.546;9.896;2023-06-26T01:53:44;7.03;;;5.07;;
1402;SDS011;696;48.546;9.896;2023-06-26T01:56:13;10.57;;;6.10;;
1402;SDS011;696;48.546;9.896;2023-06-26T01:58:43;9.40;;;5.65;;
1402;SDS011;696;48.546;9.896;2023-06-26T02:01:09;7.38;;;5.45;;
1402;SDS011;696;48.546;9.896;2023-06-26T02:03:34;8.93;;;5.75;;
1402;SDS011;696;48.546;9.896;2023-06-26T02:06:00;7.70;;;5.25;;
1402;SDS011;696;48.546;9.896;2023-06-26T02:08:25;12.85;;;6.10;;
1402;SDS011;696;48.546;9.896;2023-06-26T02:10:50;10.25;;;5.82;;
1402;SDS011;696;48.546;9.896;2023-06-26T02:13:16;9.10;;;5.80;;
1402;SDS011;696;48.546;9.896;2023-06-26T02:15:41;8.88;;;6.20;;
1402;SDS011;696;48.546;9.896;2023-06-26T02:18:06;10.27;;;5.40;;
1402;SDS011;696;48.546;9.896;2023-06-26T02:20:32;11.25;;;6.43;;
1402;SDS011;696;48.546;9.896;2023-06-26T02:22:58;10.45;;;6.22;;
1402;SDS011;696;48.546;9.896;2023-06-26T02:25:24;8.57;;;5.85;;
1402;SDS011;696;48.546;9.896;2023-06-26T02:27:49;9.05;;;5.65;;
1402;SDS011;696;48.546;9.896;2023-06-26T02:30:14;9.05;;;5.68;;
1402;SDS011;696;48.546;9.896;2023-06-26T02:32:40;11.27;;;5.40;;
1402;SDS011;696;48.546;9.896;2023-06-26T02:35:05;10.05;;;6.45;;
1402;SDS011;696;48.546;9.896;2023-06-26T02:37:31;13.25;;;6.15;;
1402;SDS011;696;48.546;9.896;2023-06-26T02:39:56;15.68;;;6.15;;
1402;SDS011;696;48.546;9.896;2023-06-26T02:42:22;11.32;;;5.75;;
1402;SDS011;696;48.546;9.896;2023-06-26T02:44:47;9.35;;;5.70;;
1402;SDS011;696;48.546;9.896;2023-06-26T02:47:12;10.13;;;6.18;;
1402;SDS011;696;48.546;9.896;2023-06-26T02:49:38;7.18;;;5.63;;
1402;SDS011;696;48.546;9.896;2023-06-26T02:52:03;11.27;;;6.20;;
1402;SDS011;696;48.546;9.896;2023-06-26T02:54:29;9.45;;;5.80;;
1402;SDS011;696;48.546;9.896;2023-06-26T02:56:54;12.02;;;6.18;;
1402;SDS011;696;48.546;9.896;2023-06-26T02:59:19;7.82;;;6.03;;
1402;SDS011;696;48.546;9.896;2023-06-26T03:01:45;8.18;;;5.90;;
1402;SDS011;696;48.546;9.896;2023-06-26T03:04:10;11.10;;;5.88;;
1402;SDS011;696;48.546;9.896;2023-06-26T03:06:36;7.60;;;5.70;;
1402;SDS011;696;48.546;9.896;2023-06-26T03:09:01;10.02;;;6.40;;
1402;SDS011;696;48.546;9.896;2023-06-26T03:11:27;9.93;;;5.93;;
1402;SDS011;696;48.546;9.896;2023-06-26T03:13:53;9.75;;;6.55;;
1402;SDS011;696;48.546;9.896;2023-06-26T03:16:18;11.13;;;6.78;;
1402;SDS011;696;48.546;9.896;2023-06-26T03:18:43;9.65;;;6.03;;
1402;SDS011;696;48.546;9.896;2023-06-26T03:21:09;13.88;;;6.32;;
1402;SDS011;696;48.546;9.896;2023-06-26T03:23:35;8.02;;;5.88;;
1402;SDS011;696;48.546;9.896;2023-06-26T03:26:00;9.40;;;6.45;;
1402;SDS011;696;48.546;9.896;2023-06-26T03:28:25;9.38;;;5.82;;
1402;SDS011;696;48.546;9.896;2023-06-26T03:30:51;13.02;;;6.43;;
1402;SDS011;696;48.546;9.896;2023-06-26T03:33:16;15.27;;;6.28;;
1402;SDS011;696;48.546;9.896;2023-06-26T03:35:41;9.57;;;6.20;;
1402;SDS011;696;48.546;9.896;2023-06-26T03:38:07;10.13;;;6.05;;
1402;SDS011;696;48.546;9.896;2023-06-26T03:40:32;9.80;;;6.07;;
1402;SDS011;696;48.546;9.896;2023-06-26T03:42:57;9.60;;;6.15;;
1402;SDS011;696;48.546;9.896;2023-06-26T03:45:23;7.88;;;5.63;;
1402;SDS011;696;48.546;9.896;2023-06-26T03:47:48;9.77;;;6.43;;
1402;SDS011;696;48.546;9.896;2023-06-26T03:50:17;10.90;;;6.05;;
1402;SDS011;696;48.546;9.896;2023-06-26T03:52:42;7.40;;;5.85;;
1402;SDS011;696;48.546;9.896;2023-06-26T03:55:08;10.23;;;6.15;;
1402;SDS011;696;48.546;9.896;2023-06-26T03:57:33;7.78;;;5.38;;
1402;SDS011;696;48.546;9.896;2023-06-26T03:59:59;9.25;;;5.68;;
1402;SDS011;696;48.546;9.896;2023-06-26T04:02:24;9.73;;;5.97;;
1402;SDS011;696;48.546;9.896;2023-06-26T04:04:50;11.75;;;6.75;;
1402;SDS011;696;48.546;9.896;2023-06-26T04:07:15;10.20;;;6.18;;
1402;SDS011;696;48.546;9.896;2023-06-26T04:09:40;7.70;;;5.70;;
1402;SDS011;696;48.546;9.896;2023-06-26T04:12:06;21.08;;;6.68;;
1402;SDS011;696;48.546;9.896;2023-06-26T04:14:31;9.88;;;6.07;;
1402;SDS011;696;48.546;9.896;2023-06-26T04:16:57;7.70;;;6.07;;
1402;SDS011;696;48.546;9.896;2023-06-26T04:19:23;7.43;;;5.38;;
1402;SDS011;696;48.546;9.896;2023-06-26T04:21:48;10.57;;;6.32;;
1402;SDS011;696;48.546;9.896;2023-06-26T04:24:14;8.00;;;5.97;;
1402;SDS011;696;48.546;9.896;2023-06-26T04:26:39;8.70;;;6.35;;
1402;SDS011;696;48.546;9.896;2023-06-26T04:29:06;8.95;;;5.97;;
1402;SDS011;696;48.546;9.896;2023-06-26T04:31:32;9.70;;;6.07;;
1402;SDS011;696;48.546;9.896;2023-06-26T04:33:57;10.65;;;6.53;;
1402;SDS011;696;48.546;9.896;2023-06-26T04:36:24;12.48;;;6.65;;
1402;SDS011;696;48.546;9.896;2023-06-26T04:38:53;11.38;;;6.97;;
1402;SDS011;696;48.546;9.896;2023-06-26T04:41:19;8.20;;;6.10;;
1402;SDS011;696;48.546;9.896;2023-06-26T04:43:45;10.02;;;6.00;;
1402;SDS011;696;48.546;9.896;2023-06-26T04:46:10;12.20;;;5.65;;
1402;SDS011;696;48.546;9.896;2023-06-26T04:48:35;9.70;;;6.63;;
1402;SDS011;696;48.546;9.896;2023-06-26T04:51:01;10.45;;;6.68;;
1402;SDS011;696;48.546;9.896;2023-06-26T04:53:26;7.45;;;5.50;;
1402;SDS011;696;48.546;9.896;2023-06-26T04:55:51;8.52;;;5.85;;
1402;SDS011;696;48.546;9.896;2023-06-26T04:58:17;10.38;;;6.28;;
1402;SDS011;696;48.546;9.896;2023-06-26T05:00:43;11.20;;;6.28;;
1402;SDS011;696;48.546;9.896;2023-06-26T05:03:12;7.85;;;5.45;;
1402;SDS011;696;48.546;9.896;2023-06-26T05:05:39;8.25;;;6.50;;
1402;SDS011;696;48.546;9.896;2023-06-26T05:08:17;9.05;;;5.90;;
1402;SDS011;696;48.546;9.896;2023-06-26T05:10:43;12.52;;;6.50;;
1402;SDS011;696;48.546;9.896;2023-06-26T05:13:09;12.63;;;6.68;;
1402;SDS011;696;48.546;9.896;2023-06-26T05:15:34;10.30;;;6.10;;
1402;SDS011;696;48.546;9.896;2023-06-26T05:18:00;20.10;;;7.68;;
1402;SDS011;696;48.546;9.896;2023-06-26T05:20:25;11.50;;;7.50;;
1402;SDS011;696;48.546;9.896;2023-06-26T05:22:50;12.10;;;8.35;;
1402;SDS011;696;48.546;9.896;2023-06-26T05:25:16;13.57;;;8.90;;
1402;SDS011;696;48.546;9.896;2023-06-26T05:27:43;11.88;;;8.00;;
1402;SDS011;696;48.546;9.896;2023-06-26T05:30:09;14.38;;;8.02;;
1402;SDS011;696;48.546;9.896;2023-06-26T05:32:35;12.45;;;8.15;;
1402;SDS011;696;48.546;9.896;2023-06-26T05:35:01;11.77;;;7.55;;
1402;SDS011;696;48.546;9.896;2023-06-26T05:37:28;12.18;;;7.53;;
1402;SDS011;696;48.546;9.896;2023-06-26T05:39:54;14.65;;;8.18;;
1402;SDS011;696;48.546;9.896;2023-06-26T05:42:20;12.27;;;8.25;;
1402;SDS011;696;48.546;9.896;2023-06-26T05:44:45;12.82;;;7.85;;
1402;SDS011;696;48.546;9.896;2023-06-26T05:47:10;9.65;;;6.90;;
1402;SDS011;696;48.546;9.896;2023-06-26T05:49:36;16.08;;;8.27;;
1402;SDS011;696;48.546;9.896;2023-06-26T05:52:01;11.27;;;8.02;;
1402;SDS011;696;48.546;9.896;2023-06-26T05:54:27;16.17;;;7.55;;
1402;SDS011;696;48.546;9.896;2023-06-26T05:56:55;9.85;;;7.15;;
1402;SDS011;696;48.546;9.896;2023-06-26T05:59:22;13.63;;;7.55;;
1402;SDS011;696;48.546;9.896;2023-06-26T06:01:48;14.18;;;7.78;;
1402;SDS011;696;48.546;9.896;2023-06-26T06:04:13;12.57;;;7.97;;
1402;SDS011;696;48.546;9.896;2023-06-26T06:06:38;12.05;;;7.65;;
1402;SDS011;696;48.546;9.896;2023-06-26T06:09:04;13.73;;;7.35;;
1402;SDS011;696;48.546;9.896;2023-06-26T06:11:29;16.67;;;8.23;;
1402;SDS011;696;48.546;9.896;2023-06-26T06:13:54;10.52;;;7.75;;
1402;SDS011;696;48.546;9.896;2023-06-26T06:16:20;11.52;;;7.65;;
1402;SDS011;696;48.546;9.896;2023-06-26T06:18:45;18.67;;;7.25;;
1402;SDS011;696;48.546;9.896;2023-06-26T06:21:10;15.15;;;6.82;;
1402;SDS011;696;48.546;9.896;2023-06-26T06:23:36;10.70;;;6.63;;
1402;SDS011;696;48.546;9.896;2023-06-26T06:26:03;11.75;;;6.50;;
1402;SDS011;696;48.546;9.896;2023-06-26T06:28:28;8.73;;;5.60;;
1402;SDS011;696;48.546;9.896;2023-06-26T06:30:54;11.85;;;6.28;;
1402;SDS011;696;48.546;9.896;2023-06-26T06:33:19;9.18;;;6.35;;
1402;SDS011;696;48.546;9.896;2023-06-26T06:35:44;9.32;;;6.28;;
1402;SDS011;696;48.546;9.896;2023-06-26T06:38:10;7.88;;;5.90;;
1402;SDS011;696;48.546;9.896;2023-06-26T06:40:35;10.80;;;5.43;;
1402;SDS011;696;48.546;9.896;2023-06-26T06:43:00;9.52;;;6.72;;
1402;SDS011;696;48.546;9.896;2023-06-26T06:45:26;7.85;;;5.75;;
1402;SDS011;696;48.546;9.896;2023-06-26T06:47:51;9.43;;;6.57;;
1402;SDS011;696;48.546;9.896;2023-06-26T06:50:17;7.70;;;5.50;;
1402;SDS011;696;48.546;9.896;2023-06-26T06:52:43;8.73;;;5.72;;
1402;SDS011;696;48.546;9.896;2023-06-26T06:55:08;7.47;;;5.40;;
1402;SDS011;696;48.546;9.896;2023-06-26T06:57:37;8.00;;;5.82;;
1402;SDS011;696;48.546;9.896;2023-06-26T07:02:30;8.48;;;6.07;;
1402;SDS011;696;48.546;9.896;2023-06-26T07:04:56;6.75;;;4.47;;
1402;SDS011;696;48.546;9.896;2023-06-26T07:07:21;6.65;;;5.35;;
1402;SDS011;696;48.546;9.896;2023-06-26T07:09:46;13.30;;;5.70;;
1402;SDS011;696;48.546;9.896;2023-06-26T07:12:12;8.43;;;5.18;;
1402;SDS011;696;48.546;9.896;2023-06-26T07:14:38;8.18;;;4.93;;
1402;SDS011;696;48.546;9.896;2023-06-26T07:17:04;5.50;;;4.45;;
1402;SDS011;696;48.546;9.896;2023-06-26T07:19:29;6.50;;;4.63;;
1402;SDS011;696;48.546;9.896;2023-06-26T07:21:55;4.22;;;3.50;;
1402;SDS011;696;48.546;9.896;2023-06-26T07:24:20;5.50;;;4.10;;
1402;SDS011;696;48.546;9.896;2023-06-26T07:26:45;6.25;;;4.05;;
1402;SDS011;696;48.546;9.896;2023-06-26T07:29:11;6.03;;;3.72;;
1402;SDS011;696;48.546;9.896;2023-06-26T07:31:36;10.50;;;3.50;;
1402;SDS011;696;48.546;9.896;2023-06-26T07:34:01;6.60;;;3.50;;
1402;SDS011;696;48.546;9.896;2023-06-26T07:36:27;5.32;;;3.30;;
1402;SDS011;696;48.546;9.896;2023-06-26T07:38:52;5.10;;;3.55;;
1402;SDS011;696;48.546;9.896;2023-06-26T07:41:18;4.60;;;3.40;;
1402;SDS011;696;48.546;9.896;2023-06-26T07:43:43;3.53;;;3.15;;
1402;SDS011;696;48.546;9.896;2023-06-26T07:46:08;7.05;;;3.60;;
1402;SDS011;696;48.546;9.896;2023-06-26T07:48:34;4.75;;;2.97;;
1402;SDS011;696;48.546;9.896;2023-06-26T07:51:00;5.13;;;3.38;;
1402;SDS011;696;48.546;9.896;2023-06-26T07:53:25;6.40;;;3.53;;
1402;SDS011;696;48.546;9.896;2023-06-26T07:55:50;7.22;;;3.13;;
1402;SDS011;696;48.546;9.896;2023-06-26T07:58:16;4.57;;;2.80;;
1402;SDS011;696;48.546;9.896;2023-06-26T08:00:41;4.55;;;3.13;;
1402;SDS011;696;48.546;9.896;2023-06-26T08:03:07;6.15;;;3.38;;
1402;SDS011;696;48.546;9.896;2023-06-26T08:05:32;6.32;;;3.38;;
1402;SDS011;696;48.546;9.896;2023-06-26T08:07:58;7.50;;;3.92;;
1402;SDS011;696;48.546;9.896;2023-06-26T08:10:23;4.35;;;3.17;;
1402;SDS011;696;48.546;9.896;2023-06-26T08:12:48;3.83;;;3.05;;
1402;SDS011;696;48.546;9.896;2023-06-26T08:15:15;4.65;;;3.22;;
1402;SDS011;696;48.546;9.896;2023-06-26T08:17:42;4.63;;;3.30;;
1402;SDS011;696;48.546;9.896;2023-06-26T08:20:07;3.85;;;2.95;;
1402;SDS011;696;48.546;9.896;2023-06-26T08:22:33;5.40;;;3.25;;
1402;SDS011;696;48.546;9.896;2023-06-26T08:24:59;6.03;;;2.83;;
1402;SDS011;696;48.546;9.896;2023-06-26T08:27:25;3.72;;;2.70;;
1402;SDS011;696;48.546;9.896;2023-06-26T08:29:50;3.63;;;3.30;;
1402;SDS011;696;48.546;9.896;2023-06-26T08:32:16;4.78;;;3.33;;
1402;SDS011;696;48.546;9.896;2023-06-26T08:34:42;5.07;;;3.50;;
1402;SDS011;696;48.546;9.896;2023-06-26T08:37:07;4.38;;;3.33;;
1402;SDS011;696;48.546;9.896;2023-06-26T08:39:34;4.38;;;3.28;;
1402;SDS011;696;48.546;9.896;2023-06-26T08:42:00;6.10;;;3.10;;
1402;SDS011;696;48.546;9.896;2023-06-26T08:44:26;4.40;;;3.20;;
1402;SDS011;696;48.546;9.896;2023-06-26T08:46:51;9.15;;;3.50;;
1402;SDS011;696;48.546;9.896;2023-06-26T08:49:51;5.68;;;3.00;;
1402;SDS011;696;48.546;9.896;2023-06-26T08:52:29;4.43;;;3.08;;
1402;SDS011;696;48.546;9.896;2023-06-26T08:57:23;3.65;;;2.90;;
1402;SDS011;696;48.546;9.896;2023-06-26T08:59:49;4.60;;;3.28;;
1402;SDS011;696;48.546;9.896;2023-06-26T09:02:14;5.05;;;3.33;;
1402;SDS011;696;48.546;9.896;2023-06-26T09:04:40;5.25;;;3.55;;
1402;SDS011;696;48.546;9.896;2023-06-26T09:07:05;4.45;;;3.03;;
1402;SDS011;696;48.546;9.896;2023-06-26T09:09:31;5.60;;;3.40;;
1402;SDS011;696;48.546;9.896;2023-06-26T09:11:56;6.70;;;3.65;;
1402;SDS011;696;48.546;9.896;2023-06-26T09:14:21;6.60;;;3.92;;
1402;SDS011;696;48.546;9.896;2023-06-26T09:16:47;4.35;;;3.08;;
1402;SDS011;696;48.546;9.896;2023-06-26T09:19:12;5.30;;;3.35;;
1402;SDS011;696;48.546;9.896;2023-06-26T09:21:42;5.68;;;3.33;;
1402;SDS011;696;48.546;9.896;2023-06-26T09:24:08;4.70;;;3.05;;
1402;SDS011;696;48.546;9.896;2023-06-26T09:26:35;3.38;;;3.00;;
1402;SDS011;696;48.546;9.896;2023-06-26T09:29:02;8.10;;;3.10;;
1402;SDS011;696;48.546;9.896;2023-06-26T09:31:28;4.25;;;2.78;;
1402;SDS011;696;48.546;9.896;2023-06-26T09:34:00;3.50;;;2.92;;
1402;SDS011;696;48.546;9.896;2023-06-26T09:36:27;4.35;;;3.05;;
1402;SDS011;696;48.546;9.896;2023-06-26T09:38:53;6.93;;;3.55;;
1402;SDS011;696;48.546;9.896;2023-06-26T09:41:20;3.58;;;2.88;;
1402;SDS011;696;48.546;9.896;2023-06-26T09:43:49;6.28;;;3.40;;
1402;SDS011;696;48.546;9.896;2023-06-26T09:46:25;5.30;;;3.20;;
1402;SDS011;696;48.546;9.896;2023-06-26T09:49:24;3.95;;;3.03;;
1402;SDS011;696;48.546;9.896;2023-06-26T09:51:44;7.38;;;3.15;;
1402;SDS011;696;48.546;9.896;2023-06-26T09:54:10;5.55;;;3.28;;
1402;SDS011;696;48.546;9.896;2023-06-26T09:56:36;6.05;;;3.30;;
1402;SDS011;696;48.546;9.896;2023-06-26T09:59:03;3.67;;;3.05;;
1402;SDS011;696;48.546;9.896;2023-06-26T10:01:30;3.75;;;3.10;;
1402;SDS011;696;48.546;9.896;2023-06-26T10:03:56;6.53;;;3.22;;
1402;SDS011;696;48.546;9.896;2023-06-26T10:06:32;4.78;;;3.08;;
1402;SDS011;696;48.546;9.896;2023-06-26T10:09:02;6.45;;;3.08;;
1402;SDS011;696;48.546;9.896;2023-06-26T10:11:33;9.48;;;3.45;;
1402;SDS011;696;48.546;9.896;2023-06-26T10:14:03;4.95;;;3.50;;
1402;SDS011;696;48.546;9.896;2023-06-26T10:16:30;5.80;;;3.30;;
1402;SDS011;696;48.546;9.896;2023-06-26T10:18:59;4.50;;;2.92;;
1402;SDS011;696;48.546;9.896;2023-06-26T10:21:27;5.55;;;3.15;;
1402;SDS011;696;48.546;9.896;2023-06-26T10:23:54;3.53;;;3.10;;
1402;SDS011;696;48.546;9.896;2023-06-26T10:26:21;4.35;;;2.90;;
1402;SDS011;696;48.546;9.896;2023-06-26T10:28:47;4.45;;;3.25;;
1402;SDS011;696;48.546;9.896;2023-06-26T10:31:17;8.82;;;3.70;;
1402;SDS011;696;48.546;9.896;2023-06-26T10:33:45;5.80;;;3.33;;
1402;SDS011;696;48.546;9.896;2023-06-26T10:39:03;4.57;;;3.40;;
1402;SDS011;696;48.546;9.896;2023-06-26T10:41:39;4.90;;;3.50;;
1402;SDS011;696;48.546;9.896;2023-06-26T10:44:09;4.38;;;3.60;;
1402;SDS011;696;48.546;9.896;2023-06-26T10:46:49;6.22;;;3.78;;
1402;SDS011;696;48.546;9.896;2023-06-26T10:49:20;3.95;;;3.10;;
1402;SDS011;696;48.546;9.896;2023-06-26T10:51:49;8.00;;;3.80;;
1402;SDS011;696;48.546;9.896;2023-06-26T10:54:15;4.93;;;3.70;;
1402;SDS011;696;48.546;9.896;2023-06-26T10:56:43;8.88;;;3.55;;
1402;SDS011;696;48.546;9.896;2023-06-26T11:01:42;8.50;;;3.80;;
1402;SDS011;696;48.546;9.896;2023-06-26T11:04:08;5.50;;;3.72;;
1402;SDS011;696;48.546;9.896;2023-06-26T11:06:35;5.88;;;3.90;;
1402;SDS011;696;48.546;9.896;2023-06-26T11:14:16;6.75;;;3.53;;
1402;SDS011;696;48.546;9.896;2023-06-26T11:16:43;7.13;;;4.20;;
1402;SDS011;696;48.546;9.896;2023-06-26T11:19:09;7.43;;;4.22;;
1402;SDS011;696;48.546;9.896;2023-06-26T11:21:35;5.68;;;3.70;;
1402;SDS011;696;48.546;9.896;2023-06-26T11:24:02;9.30;;;4.35;;
1402;SDS011;696;48.546;9.896;2023-06-26T11:26:29;5.32;;;3.83;;
1402;SDS011;696;48.546;9.896;2023-06-26T11:28:54;6.05;;;3.70;;
1402;SDS011;696;48.546;9.896;2023-06-26T11:33:51;3.95;;;3.25;;
1402;SDS011;696;48.546;9.896;2023-06-26T11:36:16;8.10;;;3.72;;
1402;SDS011;696;48.546;9.896;2023-06-26T11:38:42;5.80;;;3.85;;
1402;SDS011;696;48.546;9.896;2023-06-26T11:41:07;10.50;;;4.57;;
1402;SDS011;696;48.546;9.896;2023-06-26T11:43:33;5.15;;;3.97;;
1402;SDS011;696;48.546;9.896;2023-06-26T11:45:59;6.80;;;4.25;;
1402;SDS011;696;48.546;9.896;2023-06-26T11:48:25;8.80;;;4.75;;
1402;SDS011;696;48.546;9.896;2023-06-26T11:50:50;6.47;;;3.90;;
1402;SDS011;696;48.546;9.896;2023-06-26T11:53:16;8.02;;;4.25;;
1402;SDS011;696;48.546;9.896;2023-06-26T11:55:42;5.82;;;4.10;;
1402;SDS011;696;48.546;9.896;2023-06-26T11:58:10;5.93;;;3.80;;
1402;SDS011;696;48.546;9.896;2023-06-26T12:00:40;7.15;;;3.80;;
1402;SDS011;696;48.546;9.896;2023-06-26T12:03:06;5.80;;;3.70;;
1402;SDS011;696;48.546;9.896;2023-06-26T12:05:31;5.63;;;3.70;;
1402;SDS011;696;48.546;9.896;2023-06-26T12:07:57;7.95;;;3.80;;
1402;SDS011;696;48.546;9.896;2023-06-26T12:10:24;6.25;;;3.47;;
1402;SDS011;696;48.546;9.896;2023-06-26T12:12:49;5.68;;;3.80;;
1402;SDS011;696;48.546;9.896;2023-06-26T12:15:15;4.30;;;3.90;;
1402;SDS011;696;48.546;9.896;2023-06-26T12:17:41;7.53;;;3.92;;
1402;SDS011;696;48.546;9.896;2023-06-26T12:20:20;5.65;;;4.03;;
1402;SDS011;696;48.546;9.896;2023-06-26T12:22:47;3.80;;;3.40;;
1402;SDS011;696;48.546;9.896;2023-06-26T12:25:13;10.98;;;3.70;;
1402;SDS011;696;48.546;9.896;2023-06-26T12:27:39;5.90;;;4.10;;
1402;SDS011;696;48.546;9.896;2023-06-26T12:30:04;8.15;;;3.70;;
1402;SDS011;696;48.546;9.896;2023-06-26T12:32:30;5.80;;;4.07;;
1402;SDS011;696;48.546;9.896;2023-06-26T12:34:56;7.45;;;4.55;;
1402;SDS011;696;48.546;9.896;2023-06-26T12:37:22;6.45;;;4.03;;
1402;SDS011;696;48.546;9.896;2023-06-26T12:39:54;8.75;;;4.25;;
1402;SDS011;696;48.546;9.896;2023-06-26T12:42:22;5.53;;;3.70;;
1402;SDS011;696;48.546;9.896;2023-06-26T12:44:48;6.57;;;4.20;;
1402;SDS011;696;48.546;9.896;2023-06-26T12:47:18;6.43;;;4.00;;
1402;SDS011;696;48.546;9.896;2023-06-26T12:49:45;6.85;;;3.75;;
1402;SDS011;696;48.546;9.896;2023-06-26T12:52:15;5.63;;;4.20;;
1402;SDS011;696;48.546;9.896;2023-06-26T12:54:41;9.23;;;4.22;;
1402;SDS011;696;48.546;9.896;2023-06-26T12:57:08;7.57;;;4.13;;
1402;SDS011;696;48.546;9.896;2023-06-26T12:59:34;5.45;;;3.75;;
1402;SDS011;696;48.546;9.896;2023-06-26T13:02:00;6.65;;;3.47;;
1402;SDS011;696;48.546;9.896;2023-06-26T13:04:26;5.82;;;4.18;;
1402;SDS011;696;48.546;9.896;2023-06-26T13:06:53;5.90;;;3.97;;
1402;SDS011;696;48.546;9.896;2023-06-26T13:09:21;6.22;;;4.40;;
1402;SDS011;696;48.546;9.896;2023-06-26T13:11:48;5.40;;;3.85;;
1402;SDS011;696;48.546;9.896;2023-06-26T13:14:14;5.43;;;3.85;;
1402;SDS011;696;48.546;9.896;2023-06-26T13:16:39;6.55;;;4.07;;
1402;SDS011;696;48.546;9.896;2023-06-26T13:19:05;10.23;;;4.20;;
1402;SDS011;696;48.546;9.896;2023-06-26T13:21:31;10.82;;;4.60;;
1402;SDS011;696;48.546;9.896;2023-06-26T13:23:56;5.45;;;4.20;;
1402;SDS011;696;48.546;9.896;2023-06-26T13:26:22;9.00;;;4.43;;
1402;SDS011;696;48.546;9.896;2023-06-26T13:28:48;6.07;;;4.35;;
1402;SDS011;696;48.546;9.896;2023-06-26T13:31:14;5.65;;;4.35;;
1402;SDS011;696;48.546;9.896;2023-06-26T13:33:40;6.25;;;4.22;;
1402;SDS011;696;48.546;9.896;2023-06-26T13:36:05;5.60;;;4.28;;
1402;SDS011;696;48.546;9.896;2023-06-26T13:38:32;7.25;;;4.60;;
1402;SDS011;696;48.546;9.896;2023-06-26T13:40:59;7.13;;;4.60;;
1402;SDS011;696;48.546;9.896;2023-06-26T13:43:28;8.05;;;4.47;;
1402;SDS011;696;48.546;9.896;2023-06-26T13:45:54;10.32;;;4.75;;
1402;SDS011;696;48.546;9.896;2023-06-26T13:48:19;5.90;;;4.30;;
1402;SDS011;696;48.546;9.896;2023-06-26T13:50:45;14.35;;;5.50;;
1402;SDS011;696;48.546;9.896;2023-06-26T13:53:11;9.18;;;4.97;;
1402;SDS011;696;48.546;9.896;2023-06-26T13:55:36;9.18;;;4.80;;
1402;SDS011;696;48.546;9.896;2023-06-26T13:58:03;15.02;;;5.07;;
1402;SDS011;696;48.546;9.896;2023-06-26T14:00:32;7.75;;;4.25;;
1402;SDS011;696;48.546;9.896;2023-06-26T14:03:02;9.38;;;5.05;;
1402;SDS011;696;48.546;9.896;2023-06-26T14:07:57;6.20;;;4.80;;
1402;SDS011;696;48.546;9.896;2023-06-26T14:10:22;9.55;;;5.03;;
1402;SDS011;696;48.546;9.896;2023-06-26T14:12:48;7.05;;;4.97;;
1402;SDS011;696;48.546;9.896;2023-06-26T14:15:14;8.75;;;4.93;;
1402;SDS011;696;48.546;9.896;2023-06-26T14:17:39;6.22;;;4.57;;
1402;SDS011;696;48.546;9.896;2023-06-26T14:20:08;10.30;;;4.68;;
1402;SDS011;696;48.546;9.896;2023-06-26T14:22:44;8.38;;;4.78;;
1402;SDS011;696;48.546;9.896;2023-06-26T14:25:10;5.72;;;4.50;;
1402;SDS011;696;48.546;9.896;2023-06-26T14:27:37;7.28;;;4.10;;
1402;SDS011;696;48.546;9.896;2023-06-26T14:30:03;9.73;;;5.07;;
1402;SDS011;696;48.546;9.896;2023-06-26T14:32:29;7.25;;;5.32;;
1402;SDS011;696;48.546;9.896;2023-06-26T14:34:55;10.55;;;4.45;;
1402;SDS011;696;48.546;9.896;2023-06-26T14:37:20;6.05;;;5.00;;
1402;SDS011;696;48.546;9.896;2023-06-26T14:39:46;8.75;;;4.45;;
1402;SDS011;696;48.546;9.896;2023-06-26T14:42:11;16.55;;;4.65;;
1402;SDS011;696;48.546;9.896;2023-06-26T14:44:36;7.35;;;4.53;;
1402;SDS011;696;48.546;9.896;2023-06-26T14:47:02;8.68;;;4.80;;
1402;SDS011;696;48.546;9.896;2023-06-26T14:49:27;6.50;;;3.80;;
1402;SDS011;696;48.546;9.896;2023-06-26T14:51:53;6.97;;;4.75;;
1402;SDS011;696;48.546;9.896;2023-06-26T14:54:18;7.82;;;4.25;;
1402;SDS011;696;48.546;9.896;2023-06-26T14:56:44;7.78;;;4.80;;
1402;SDS011;696;48.546;9.896;2023-06-26T14:59:10;6.22;;;4.32;;
1402;SDS011;696;48.546;9.896;2023-06-26T15:01:37;5.72;;;4.00;;
1402;SDS011;696;48.546;9.896;2023-06-26T15:04:03;8.25;;;3.85;;
1402;SDS011;696;48.546;9.896;2023-06-26T15:06:28;6.95;;;4.53;;
1402;SDS011;696;48.546;9.896;2023-06-26T15:08:53;8.57;;;4.80;;
1402;SDS011;696;48.546;9.896;2023-06-26T15:11:20;13.40;;;4.68;;
1402;SDS011;696;48.546;9.896;2023-06-26T15:13:45;7.00;;;4.53;;
1402;SDS011;696;48.546;9.896;2023-06-26T15:16:11;9.00;;;5.05;;
1402;SDS011;696;48.546;9.896;2023-06-26T15:18:36;5.75;;;4.13;;
1402;SDS011;696;48.546;9.896;2023-06-26T15:21:01;8.55;;;4.30;;
1402;SDS011;696;48.546;9.896;2023-06-26T15:23:30;9.15;;;4.32;;
1402;SDS011;696;48.546;9.896;2023-06-26T15:25:55;7.70;;;4.45;;
1402;SDS011;696;48.546;9.896;2023-06-26T15:28:20;6.13;;;4.45;;
1402;SDS011;696;48.546;9.896;2023-06-26T15:30:46;6.80;;;4.13;;
1402;SDS011;696;48.546;9.896;2023-06-26T15:33:12;8.20;;;4.78;;
1402;SDS011;696;48.546;9.896;2023-06-26T15:35:37;7.30;;;4.25;;
1402;SDS011;696;48.546;9.896;2023-06-26T15:38:02;5.57;;;3.92;;
1402;SDS011;696;48.546;9.896;2023-06-26T15:40:28;7.13;;;4.07;;
1402;SDS011;696;48.546;9.896;2023-06-26T15:42:53;9.27;;;4.00;;
1402;SDS011;696;48.546;9.896;2023-06-26T15:45:19;7.63;;;4.55;;
1402;SDS011;696;48.546;9.896;2023-06-26T15:47:46;5.70;;;4.30;;
1402;SDS011;696;48.546;9.896;2023-06-26T15:50:12;8.55;;;4.57;;